createdAt,value
2022-10-11T00:01:10.153Z,11.30
2022-10-11T00:05:56.579Z,11.20
2022-10-11T00:10:48.788Z,11.30
2022-10-11T00:15:35.120Z,11.30
2022-10-11T00:20:19.980Z,11.50
2022-10-11T00:25:10.684Z,11.50
2022-10-11T00:29:56.039Z,11.60
2022-10-11T00:34:45.322Z,11.70
2022-10-11T00:39:33.595Z,11.80
2022-10-11T00:44:24.218Z,11.80
2022-10-11T00:49:24.643Z,11.70
2022-10-11T00:54:26.334Z,11.60
2022-10-11T00:59:28.546Z,11.50
2022-10-11T01:04:41.143Z,11.50
2022-10-11T01:09:42.478Z,11.50
2022-10-11T01:15:22.672Z,11.50
2022-10-11T01:20:46.915Z,11.60
2022-10-11T01:25:44.413Z,11.70
2022-10-11T01:30:38.209Z,11.80
2022-10-11T01:35:41.428Z,11.90
2022-10-11T01:40:41.455Z,12.00
2022-10-11T01:45:33.860Z,11.90
2022-10-11T01:50:52.643Z,12.00
2022-10-11T01:55:55.731Z,11.90
2022-10-11T02:00:57.336Z,12.00
2022-10-11T02:06:00.172Z,11.80
2022-10-11T02:16:23.394Z,11.90
2022-10-11T02:21:28.173Z,12.00
2022-10-11T02:26:53.003Z,11.90
2022-10-11T02:31:42.496Z,11.90
2022-10-11T02:36:42.311Z,11.90
2022-10-11T02:41:34.807Z,11.90
2022-10-11T02:46:33.580Z,11.90
2022-10-11T02:51:21.711Z,11.90
2022-10-11T02:56:11.273Z,11.90
2022-10-11T03:00:58.360Z,12.00
2022-10-11T03:05:46.478Z,11.90
2022-10-11T03:10:33.947Z,11.80
2022-10-11T03:15:22.819Z,11.80
2022-10-11T03:20:10.458Z,11.80
2022-10-11T03:25:02.517Z,11.70
2022-10-11T03:35:07.389Z,11.40
2022-10-11T03:39:59.919Z,11.30
2022-10-11T03:45:47.778Z,11.40
2022-10-11T03:51:23.693Z,11.10
2022-10-11T03:56:15.580Z,11.00
2022-10-11T04:01:31.106Z,11.10
2022-10-11T04:06:21.987Z,11.00
2022-10-11T04:11:37.372Z,10.90
2022-10-11T04:16:39.227Z,10.90
2022-10-11T04:21:31.448Z,10.80
2022-10-11T04:26:19.015Z,10.70
2022-10-11T04:31:09.551Z,10.70
2022-10-11T05:31:56.651Z,8.90
2022-10-11T06:14:06.886Z,7.70
2022-10-11T06:26:21.741Z,7.70
2022-10-11T07:31:04.822Z,10.70
2022-10-11T07:41:47.970Z,11.20
2022-10-11T07:59:37.317Z,12.40
2022-10-11T08:04:28.910Z,12.60
2022-10-11T08:10:46.870Z,12.70
2022-10-11T08:34:20.492Z,14.00
2022-10-11T08:39:09.201Z,14.40
2022-10-11T08:44:24.626Z,14.30
2022-10-11T08:55:35.488Z,14.60
2022-10-11T09:00:55.863Z,14.70
2022-10-11T09:06:19.053Z,14.60
2022-10-11T09:11:22.979Z,15.00
2022-10-11T09:16:43.972Z,14.40
2022-10-11T09:22:50.312Z,14.80
2022-10-11T09:34:38.107Z,15.00
2022-10-11T09:45:48.988Z,14.00
2022-10-11T09:56:10.245Z,15.70
2022-10-11T10:01:15.808Z,16.30
2022-10-11T10:07:06.352Z,16.60
2022-10-11T10:11:54.627Z,17.10
2022-10-11T10:16:44.048Z,17.30
2022-10-11T10:21:31.803Z,16.80
2022-10-11T10:26:20.061Z,15.80
2022-10-11T10:31:05.074Z,15.50
2022-10-11T10:36:42.589Z,15.50
2022-10-11T10:47:05.892Z,16.30
2022-10-11T10:52:09.646Z,16.50
2022-10-11T11:03:22.995Z,15.00
2022-10-11T11:08:24.350Z,13.90
2022-10-11T11:13:32.891Z,14.50
2022-10-11T11:18:33.008Z,15.10
2022-10-11T11:30:52.499Z,15.50
2022-10-11T11:37:34.771Z,14.90
2022-10-11T11:48:25.667Z,14.80
2022-10-11T11:53:49.685Z,15.60
2022-10-11T11:58:50.116Z,16.20
2022-10-11T12:03:42.002Z,16.60
2022-10-11T12:14:48.314Z,16.60
2022-10-11T12:26:55.379Z,14.60
2022-10-11T12:32:31.026Z,14.80
2022-10-11T12:44:27.007Z,15.50
2022-10-11T12:50:33.845Z,15.80
2022-10-11T12:56:57.839Z,16.00
2022-10-11T13:14:22.387Z,15.90
2022-10-11T13:19:08.057Z,15.30
2022-10-11T13:23:58.237Z,14.50
2022-10-11T13:28:43.692Z,14.30
2022-10-11T13:33:34.146Z,14.50
2022-10-11T13:38:34.318Z,14.90
2022-10-11T13:43:24.853Z,14.90
2022-10-11T13:48:31.684Z,14.50
2022-10-11T13:54:04.909Z,14.40
2022-10-11T13:58:49.286Z,14.70
2022-10-11T14:03:56.718Z,14.80
2022-10-11T14:08:46.234Z,14.90
2022-10-11T14:13:35.564Z,14.80
2022-10-11T14:18:54.999Z,14.40
2022-10-11T14:24:30.821Z,13.90
2022-10-11T14:30:49.500Z,13.50
2022-10-11T14:42:38.693Z,12.80
2022-10-11T14:48:05.958Z,13.00
2022-10-11T14:53:49.789Z,13.20
2022-10-11T14:59:12.021Z,13.30
2022-10-11T15:04:29.265Z,13.40
2022-10-11T15:09:13.268Z,13.20
2022-10-11T15:14:22.690Z,13.10
2022-10-11T15:19:06.752Z,13.00
2022-10-11T15:41:31.785Z,11.60
2022-10-11T15:46:22.597Z,11.30
2022-10-11T15:51:06.740Z,10.90
2022-10-11T15:55:56.348Z,10.70
2022-10-11T16:00:43.374Z,10.30
2022-10-11T16:05:31.510Z,9.90
2022-10-11T16:10:17.893Z,9.60
2022-10-11T16:15:11.175Z,9.30
2022-10-11T16:27:08.382Z,8.60
2022-10-11T16:32:10.989Z,8.30
2022-10-11T16:36:58.960Z,8.10
2022-10-11T16:41:48.606Z,7.90
2022-10-11T16:46:37.642Z,7.80
2022-10-11T16:51:22.095Z,7.70
2022-10-11T16:56:10.006Z,7.50
2022-10-11T17:01:00.966Z,7.30
2022-10-11T17:05:44.976Z,7.30
2022-10-11T17:11:04.680Z,7.30
2022-10-11T17:15:53.692Z,7.00
2022-10-11T17:20:45.775Z,7.00
2022-10-11T17:25:30.100Z,7.00
2022-10-11T17:30:18.142Z,7.00
2022-10-11T17:35:05.895Z,7.00
2022-10-11T17:39:54.051Z,6.80
2022-10-11T17:44:41.892Z,6.70
2022-10-11T17:49:29.572Z,6.70
2022-10-11T17:54:22.844Z,6.70
2022-10-11T17:59:08.997Z,6.50
2022-10-11T18:03:55.529Z,6.40
2022-10-11T18:08:42.614Z,6.30
2022-10-11T18:13:30.321Z,6.30
2022-10-11T18:18:20.967Z,6.30
2022-10-11T18:23:05.293Z,6.30
2022-10-11T18:27:54.669Z,6.50
2022-10-11T18:32:41.872Z,6.70
